sensor_id;sensor_type;location;lat;lon;timestamp;temperature;humidity
72940;DHT22;61094;51.154;13.570;2023-07-31T00:01:18;14.70;99.90
72940;DHT22;61094;51.154;13.570;2023-07-31T00:06:21;14.70;99.90
72940;DHT22;61094;51.154;13.570;2023-07-31T00:11:22;14.60;99.90
72940;DHT22;61094;51.154;13.570;2023-07-31T00:16:24;14.50;99.90
72940;DHT22;61094;51.154;13.570;2023-07-31T00:21:27;14.40;99.90
72940;DHT22;61094;51.154;13.570;2023-07-31T00:26:29;14.30;99.90
72940;DHT22;61094;51.154;13.570;2023-07-31T00:31:33;14.20;99.90
72940;DHT22;61094;51.154;13.570;2023-07-31T00:36:36;14.20;99.90
72940;DHT22;61094;51.154;13.570;2023-07-31T00:41:37;14.20;99.90
72940;DHT22;61094;51.154;13.570;2023-07-31T00:46:39;14.20;99.90
72940;DHT22;61094;51.154;13.570;2023-07-31T00:51:42;14.20;99.90
72940;DHT22;61094;51.154;13.570;2023-07-31T00:56:45;14.10;99.90
72940;DHT22;61094;51.154;13.570;2023-07-31T01:01:49;14.10;99.90
72940;DHT22;61094;51.154;13.570;2023-07-31T01:06:59;14.10;99.90
72940;DHT22;61094;51.154;13.570;2023-07-31T01:12:04;14.00;99.90
72940;DHT22;61094;51.154;13.570;2023-07-31T01:17:08;14.00;99.90
72940;DHT22;61094;51.154;13.570;2023-07-31T01:22:23;13.90;99.90
72940;DHT22;61094;51.154;13.570;2023-07-31T01:27:34;13.90;99.90
72940;DHT22;61094;51.154;13.570;2023-07-31T01:32:39;13.90;99.90
72940;DHT22;61094;51.154;13.570;2023-07-31T01:37:41;14.00;99.90
72940;DHT22;61094;51.154;13.570;2023-07-31T01:42:44;14.10;99.90
72940;DHT22;61094;51.154;13.570;2023-07-31T01:47:46;14.30;99.90
72940;DHT22;61094;51.154;13.570;2023-07-31T01:52:48;14.50;99.90
72940;DHT22;61094;51.154;13.570;2023-07-31T01:57:51;14.60;99.90
72940;DHT22;61094;51.154;13.570;2023-07-31T02:02:53;14.70;99.90
72940;DHT22;61094;51.154;13.570;2023-07-31T02:07:55;14.80;99.90
72940;DHT22;61094;51.154;13.570;2023-07-31T02:13:02;14.90;99.90
72940;DHT22;61094;51.154;13.570;2023-07-31T02:18:04;15.00;99.90
72940;DHT22;61094;51.154;13.570;2023-07-31T02:23:06;15.10;99.90
72940;DHT22;61094;51.154;13.570;2023-07-31T02:28:10;15.30;99.90
72940;DHT22;61094;51.154;13.570;2023-07-31T02:33:12;15.40;99.90
72940;DHT22;61094;51.154;13.570;2023-07-31T02:38:13;15.40;99.90
72940;DHT22;61094;51.154;13.570;2023-07-31T02:43:17;15.40;99.90
72940;DHT22;61094;51.154;13.570;2023-07-31T02:48:19;15.40;99.90
72940;DHT22;61094;51.154;13.570;2023-07-31T02:53:21;15.30;99.90
72940;DHT22;61094;51.154;13.570;2023-07-31T02:58:25;15.40;99.90
72940;DHT22;61094;51.154;13.570;2023-07-31T03:03:26;15.40;99.90
72940;DHT22;61094;51.154;13.570;2023-07-31T03:08:28;15.40;99.90
72940;DHT22;61094;51.154;13.570;2023-07-31T03:13:31;15.50;99.90
72940;DHT22;61094;51.154;13.570;2023-07-31T03:18:33;15.50;99.90
72940;DHT22;61094;51.154;13.570;2023-07-31T03:23:35;15.50;99.90
72940;DHT22;61094;51.154;13.570;2023-07-31T03:28:38;15.50;99.90
72940;DHT22;61094;51.154;13.570;2023-07-31T03:33:40;15.50;99.90
72940;DHT22;61094;51.154;13.570;2023-07-31T03:38:42;15.40;99.90
72940;DHT22;61094;51.154;13.570;2023-07-31T03:43:49;15.20;99.90
72940;DHT22;61094;51.154;13.570;2023-07-31T03:48:51;15.00;99.90
72940;DHT22;61094;51.154;13.570;2023-07-31T03:53:53;14.90;99.90
72940;DHT22;61094;51.154;13.570;2023-07-31T03:58:56;14.70;99.90
72940;DHT22;61094;51.154;13.570;2023-07-31T04:03:58;14.70;99.90
72940;DHT22;61094;51.154;13.570;2023-07-31T04:09:01;14.50;99.90
72940;DHT22;61094;51.154;13.570;2023-07-31T04:14:04;14.40;99.90
72940;DHT22;61094;51.154;13.570;2023-07-31T04:19:06;14.30;99.90
72940;DHT22;61094;51.154;13.570;2023-07-31T04:24:08;14.30;99.90
72940;DHT22;61094;51.154;13.570;2023-07-31T04:29:11;14.20;99.90
72940;DHT22;61094;51.154;13.570;2023-07-31T04:34:13;14.10;99.90
72940;DHT22;61094;51.154;13.570;2023-07-31T04:39:14;14.10;99.90
72940;DHT22;61094;51.154;13.570;2023-07-31T04:44:18;14.10;99.90
72940;DHT22;61094;51.154;13.570;2023-07-31T04:49:19;14.10;99.90
72940;DHT22;61094;51.154;13.570;2023-07-31T04:54:21;14.10;99.90
72940;DHT22;61094;51.154;13.570;2023-07-31T04:59:24;14.10;99.90
72940;DHT22;61094;51.154;13.570;2023-07-31T05:04:26;14.20;99.90
72940;DHT22;61094;51.154;13.570;2023-07-31T05:09:28;14.20;99.90
72940;DHT22;61094;51.154;13.570;2023-07-31T05:14:31;14.20;99.90
72940;DHT22;61094;51.154;13.570;2023-07-31T05:19:33;14.30;99.90
72940;DHT22;61094;51.154;13.570;2023-07-31T05:24:35;14.30;99.90
72940;DHT22;61094;51.154;13.570;2023-07-31T05:29:38;14.30;99.90
72940;DHT22;61094;51.154;13.570;2023-07-31T05:34:40;14.40;99.90
72940;DHT22;61094;51.154;13.570;2023-07-31T05:39:41;14.40;99.90
72940;DHT22;61094;51.154;13.570;2023-07-31T05:44:44;14.50;99.90
72940;DHT22;61094;51.154;13.570;2023-07-31T05:49:48;14.50;99.90
72940;DHT22;61094;51.154;13.570;2023-07-31T05:54:53;14.60;99.90
72940;DHT22;61094;51.154;13.570;2023-07-31T05:59:56;14.60;99.90
72940;DHT22;61094;51.154;13.570;2023-07-31T06:04:58;14.60;99.90
72940;DHT22;61094;51.154;13.570;2023-07-31T06:10:01;14.70;99.90
72940;DHT22;61094;51.154;13.570;2023-07-31T06:15:07;14.70;99.90
72940;DHT22;61094;51.154;13.570;2023-07-31T06:20:10;14.80;99.90
72940;DHT22;61094;51.154;13.570;2023-07-31T06:25:12;14.90;99.90
72940;DHT22;61094;51.154;13.570;2023-07-31T06:30:17;14.90;99.90
72940;DHT22;61094;51.154;13.570;2023-07-31T06:35:19;15.00;99.90
72940;DHT22;61094;51.154;13.570;2023-07-31T06:40:22;15.00;99.90
72940;DHT22;61094;51.154;13.570;2023-07-31T06:45:26;15.00;99.90
72940;DHT22;61094;51.154;13.570;2023-07-31T06:50:28;14.90;99.90
72940;DHT22;61094;51.154;13.570;2023-07-31T06:55:30;14.80;99.90
72940;DHT22;61094;51.154;13.570;2023-07-31T07:00:33;14.90;99.90
72940;DHT22;61094;51.154;13.570;2023-07-31T07:05:35;15.00;99.90
72940;DHT22;61094;51.154;13.570;2023-07-31T07:10:37;15.10;99.90
72940;DHT22;61094;51.154;13.570;2023-07-31T07:15:40;15.30;99.90
72940;DHT22;61094;51.154;13.570;2023-07-31T07:20:46;15.50;99.90
72940;DHT22;61094;51.154;13.570;2023-07-31T07:25:50;15.70;99.90
72940;DHT22;61094;51.154;13.570;2023-07-31T07:30:56;15.90;99.90
72940;DHT22;61094;51.154;13.570;2023-07-31T07:36:00;16.10;99.90
72940;DHT22;61094;51.154;13.570;2023-07-31T07:41:02;16.40;99.90
72940;DHT22;61094;51.154;13.570;2023-07-31T07:46:06;16.60;99.90
72940;DHT22;61094;51.154;13.570;2023-07-31T07:51:08;16.80;99.90
72940;DHT22;61094;51.154;13.570;2023-07-31T07:56:11;17.00;99.90
72940;DHT22;61094;51.154;13.570;2023-07-31T08:01:14;17.10;99.90
72940;DHT22;61094;51.154;13.570;2023-07-31T08:06:16;17.20;99.90
72940;DHT22;61094;51.154;13.570;2023-07-31T08:11:20;17.40;99.90
72940;DHT22;61094;51.154;13.570;2023-07-31T08:16:25;17.40;99.90
72940;DHT22;61094;51.154;13.570;2023-07-31T08:21:27;17.50;99.90
72940;DHT22;61094;51.154;13.570;2023-07-31T08:26:29;17.50;99.90
72940;DHT22;61094;51.154;13.570;2023-07-31T08:31:32;17.50;99.90
72940;DHT22;61094;51.154;13.570;2023-07-31T08:36:35;17.50;99.90
72940;DHT22;61094;51.154;13.570;2023-07-31T08:41:37;17.50;99.90
72940;DHT22;61094;51.154;13.570;2023-07-31T08:46:41;17.60;99.90
72940;DHT22;61094;51.154;13.570;2023-07-31T08:51:46;17.60;99.90
72940;DHT22;61094;51.154;13.570;2023-07-31T08:56:56;17.60;99.90
72940;DHT22;61094;51.154;13.570;2023-07-31T09:02:05;17.60;99.90
72940;DHT22;61094;51.154;13.570;2023-07-31T09:07:08;17.60;99.90
72940;DHT22;61094;51.154;13.570;2023-07-31T09:12:11;17.60;99.90
72940;DHT22;61094;51.154;13.570;2023-07-31T09:17:14;17.60;99.90
72940;DHT22;61094;51.154;13.570;2023-07-31T09:22:31;17.60;99.90
72940;DHT22;61094;51.154;13.570;2023-07-31T09:27:46;17.70;99.90
72940;DHT22;61094;51.154;13.570;2023-07-31T09:32:50;17.80;99.90
72940;DHT22;61094;51.154;13.570;2023-07-31T09:37:56;17.80;99.90
72940;DHT22;61094;51.154;13.570;2023-07-31T09:43:00;17.80;99.90
72940;DHT22;61094;51.154;13.570;2023-07-31T09:48:03;17.90;99.90
72940;DHT22;61094;51.154;13.570;2023-07-31T09:53:09;18.00;99.90
72940;DHT22;61094;51.154;13.570;2023-07-31T09:58:12;18.00;99.90
72940;DHT22;61094;51.154;13.570;2023-07-31T10:03:16;18.00;99.90
72940;DHT22;61094;51.154;13.570;2023-07-31T10:08:21;18.00;99.90
72940;DHT22;61094;51.154;13.570;2023-07-31T10:13:28;18.10;99.90
72940;DHT22;61094;51.154;13.570;2023-07-31T10:18:32;18.10;99.90
72940;DHT22;61094;51.154;13.570;2023-07-31T10:23:34;18.10;99.90
72940;DHT22;61094;51.154;13.570;2023-07-31T10:28:36;18.20;99.90
72940;DHT22;61094;51.154;13.570;2023-07-31T10:33:40;18.30;99.90
72940;DHT22;61094;51.154;13.570;2023-07-31T10:38:42;18.40;99.90
72940;DHT22;61094;51.154;13.570;2023-07-31T10:43:46;18.50;99.90
72940;DHT22;61094;51.154;13.570;2023-07-31T10:48:57;18.60;99.90
72940;DHT22;61094;51.154;13.570;2023-07-31T10:54:10;18.70;99.90
72940;DHT22;61094;51.154;13.570;2023-07-31T10:59:13;18.80;98.60
72940;DHT22;61094;51.154;13.570;2023-07-31T11:04:24;18.90;98.70
72940;DHT22;61094;51.154;13.570;2023-07-31T11:09:28;19.00;99.90
72940;DHT22;61094;51.154;13.570;2023-07-31T11:14:31;19.00;97.90
72940;DHT22;61094;51.154;13.570;2023-07-31T11:19:37;19.00;99.90
72940;DHT22;61094;51.154;13.570;2023-07-31T11:24:42;18.70;99.90
72940;DHT22;61094;51.154;13.570;2023-07-31T11:29:43;18.40;99.90
72940;DHT22;61094;51.154;13.570;2023-07-31T11:34:52;17.90;99.90
72940;DHT22;61094;51.154;13.570;2023-07-31T11:40:00;17.80;99.90
72940;DHT22;61094;51.154;13.570;2023-07-31T11:45:03;17.90;99.90
72940;DHT22;61094;51.154;13.570;2023-07-31T11:50:10;18.20;99.90
72940;DHT22;61094;51.154;13.570;2023-07-31T11:55:17;18.50;99.90
72940;DHT22;61094;51.154;13.570;2023-07-31T12:00:19;19.00;99.90
72940;DHT22;61094;51.154;13.570;2023-07-31T12:05:23;19.50;99.90
72940;DHT22;61094;51.154;13.570;2023-07-31T12:10:27;20.30;99.90
72940;DHT22;61094;51.154;13.570;2023-07-31T12:15:33;21.30;98.70
72940;DHT22;61094;51.154;13.570;2023-07-31T12:20:40;21.80;94.30
72940;DHT22;61094;51.154;13.570;2023-07-31T12:25:42;21.80;95.40
72940;DHT22;61094;51.154;13.570;2023-07-31T12:30:45;21.60;90.40
72940;DHT22;61094;51.154;13.570;2023-07-31T12:35:48;21.50;89.30
72940;DHT22;61094;51.154;13.570;2023-07-31T12:40:50;21.30;92.00
72940;DHT22;61094;51.154;13.570;2023-07-31T12:45:53;21.30;91.50
72940;DHT22;61094;51.154;13.570;2023-07-31T12:50:56;21.30;90.90
72940;DHT22;61094;51.154;13.570;2023-07-31T12:55:58;21.30;87.50
72940;DHT22;61094;51.154;13.570;2023-07-31T13:01:00;21.40;90.70
72940;DHT22;61094;51.154;13.570;2023-07-31T13:06:04;21.50;82.00
72940;DHT22;61094;51.154;13.570;2023-07-31T13:11:07;21.50;77.20
72940;DHT22;61094;51.154;13.570;2023-07-31T13:16:10;21.40;79.70
72940;DHT22;61094;51.154;13.570;2023-07-31T13:21:15;21.30;76.80
72940;DHT22;61094;51.154;13.570;2023-07-31T13:26:17;21.30;85.90
72940;DHT22;61094;51.154;13.570;2023-07-31T13:31:19;21.30;86.80
72940;DHT22;61094;51.154;13.570;2023-07-31T13:36:22;21.50;78.40
72940;DHT22;61094;51.154;13.570;2023-07-31T13:41:24;21.60;80.70
72940;DHT22;61094;51.154;13.570;2023-07-31T13:46:27;21.80;76.40
72940;DHT22;61094;51.154;13.570;2023-07-31T13:51:30;21.90;78.30
72940;DHT22;61094;51.154;13.570;2023-07-31T13:56:33;21.90;74.80
72940;DHT22;61094;51.154;13.570;2023-07-31T14:01:36;21.90;77.30
72940;DHT22;61094;51.154;13.570;2023-07-31T14:06:40;22.10;75.20
72940;DHT22;61094;51.154;13.570;2023-07-31T14:11:43;22.30;59.40
72940;DHT22;61094;51.154;13.570;2023-07-31T14:16:44;22.30;63.20
72940;DHT22;61094;51.154;13.570;2023-07-31T14:21:48;22.30;63.50
72940;DHT22;61094;51.154;13.570;2023-07-31T14:26:49;22.30;61.80
72940;DHT22;61094;51.154;13.570;2023-07-31T14:31:51;22.30;56.00
72940;DHT22;61094;51.154;13.570;2023-07-31T14:36:55;22.40;57.90
72940;DHT22;61094;51.154;13.570;2023-07-31T14:41:56;22.50;60.90
72940;DHT22;61094;51.154;13.570;2023-07-31T14:46:59;22.60;59.50
72940;DHT22;61094;51.154;13.570;2023-07-31T14:52:02;23.00;58.10
72940;DHT22;61094;51.154;13.570;2023-07-31T14:57:05;23.20;49.90
72940;DHT22;61094;51.154;13.570;2023-07-31T15:02:08;23.40;48.60
72940;DHT22;61094;51.154;13.570;2023-07-31T15:07:12;23.40;48.90
72940;DHT22;61094;51.154;13.570;2023-07-31T15:12:14;23.20;49.10
72940;DHT22;61094;51.154;13.570;2023-07-31T15:17:16;23.10;51.80
72940;DHT22;61094;51.154;13.570;2023-07-31T15:28:40;23.00;54.30
72940;DHT22;61094;51.154;13.570;2023-07-31T15:33:43;22.90;54.30
72940;DHT22;61094;51.154;13.570;2023-07-31T15:38:44;22.70;56.40
72940;DHT22;61094;51.154;13.570;2023-07-31T15:43:52;22.50;53.30
72940;DHT22;61094;51.154;13.570;2023-07-31T15:48:54;22.30;51.40
72940;DHT22;61094;51.154;13.570;2023-07-31T15:53:56;22.20;53.20
72940;DHT22;61094;51.154;13.570;2023-07-31T15:58:59;22.10;55.70
72940;DHT22;61094;51.154;13.570;2023-07-31T16:04:01;22.00;57.40
72940;DHT22;61094;51.154;13.570;2023-07-31T16:09:03;21.90;61.50
72940;DHT22;61094;51.154;13.570;2023-07-31T16:14:06;21.90;59.30
72940;DHT22;61094;51.154;13.570;2023-07-31T16:19:08;21.80;61.00
72940;DHT22;61094;51.154;13.570;2023-07-31T16:24:10;21.60;63.20
72940;DHT22;61094;51.154;13.570;2023-07-31T16:29:13;21.60;64.10
72940;DHT22;61094;51.154;13.570;2023-07-31T16:34:15;21.60;65.10
72940;DHT22;61094;51.154;13.570;2023-07-31T16:39:17;21.60;64.20
72940;DHT22;61094;51.154;13.570;2023-07-31T16:44:20;21.50;67.00
72940;DHT22;61094;51.154;13.570;2023-07-31T16:49:22;21.40;63.70
72940;DHT22;61094;51.154;13.570;2023-07-31T16:54:25;21.30;64.40
72940;DHT22;61094;51.154;13.570;2023-07-31T16:59:28;21.20;66.30
72940;DHT22;61094;51.154;13.570;2023-07-31T17:04:31;21.20;67.30
72940;DHT22;61094;51.154;13.570;2023-07-31T17:09:33;21.20;70.70
72940;DHT22;61094;51.154;13.570;2023-07-31T17:14:36;21.20;70.10
72940;DHT22;61094;51.154;13.570;2023-07-31T17:19:38;21.10;71.80
72940;DHT22;61094;51.154;13.570;2023-07-31T17:24:40;21.10;73.90
72940;DHT22;61094;51.154;13.570;2023-07-31T17:29:43;21.00;75.00
72940;DHT22;61094;51.154;13.570;2023-07-31T17:34:45;21.00;75.40
72940;DHT22;61094;51.154;13.570;2023-07-31T17:39:48;21.00;77.50
72940;DHT22;61094;51.154;13.570;2023-07-31T17:44:51;21.00;76.80
72940;DHT22;61094;51.154;13.570;2023-07-31T17:49:54;21.00;80.20
72940;DHT22;61094;51.154;13.570;2023-07-31T17:54:57;21.00;82.10
72940;DHT22;61094;51.154;13.570;2023-07-31T18:00:00;21.00;80.40
72940;DHT22;61094;51.154;13.570;2023-07-31T18:05:07;21.00;80.20
72940;DHT22;61094;51.154;13.570;2023-07-31T18:10:09;21.00;82.50
72940;DHT22;61094;51.154;13.570;2023-07-31T18:15:13;20.90;84.40
72940;DHT22;61094;51.154;13.570;2023-07-31T18:20:15;20.80;85.50
72940;DHT22;61094;51.154;13.570;2023-07-31T18:25:17;20.80;86.40
72940;DHT22;61094;51.154;13.570;2023-07-31T18:30:21;20.80;87.70
72940;DHT22;61094;51.154;13.570;2023-07-31T18:35:23;20.70;86.60
72940;DHT22;61094;51.154;13.570;2023-07-31T18:40:25;20.70;89.10
72940;DHT22;61094;51.154;13.570;2023-07-31T18:45:28;20.60;88.90
72940;DHT22;61094;51.154;13.570;2023-07-31T18:50:30;20.60;90.30
72940;DHT22;61094;51.154;13.570;2023-07-31T18:55:32;20.50;90.70
72940;DHT22;61094;51.154;13.570;2023-07-31T19:00:35;20.50;90.70
72940;DHT22;61094;51.154;13.570;2023-07-31T19:05:38;20.50;90.80
72940;DHT22;61094;51.154;13.570;2023-07-31T19:10:41;20.40;91.50
72940;DHT22;61094;51.154;13.570;2023-07-31T19:15:46;20.40;91.10
72940;DHT22;61094;51.154;13.570;2023-07-31T19:20:50;20.30;92.40
72940;DHT22;61094;51.154;13.570;2023-07-31T19:25:51;20.30;92.00
72940;DHT22;61094;51.154;13.570;2023-07-31T19:30:55;20.20;92.90
72940;DHT22;61094;51.154;13.570;2023-07-31T19:35:58;20.20;92.30
72940;DHT22;61094;51.154;13.570;2023-07-31T19:41:00;20.20;92.10
72940;DHT22;61094;51.154;13.570;2023-07-31T19:46:03;20.20;92.20
72940;DHT22;61094;51.154;13.570;2023-07-31T19:51:05;20.20;92.10
72940;DHT22;61094;51.154;13.570;2023-07-31T19:56:08;20.20;92.60
72940;DHT22;61094;51.154;13.570;2023-07-31T20:01:11;20.10;92.50
72940;DHT22;61094;51.154;13.570;2023-07-31T20:06:13;20.10;92.00
72940;DHT22;61094;51.154;13.570;2023-07-31T20:11:15;20.10;92.50
72940;DHT22;61094;51.154;13.570;2023-07-31T20:16:20;20.10;92.40
72940;DHT22;61094;51.154;13.570;2023-07-31T20:21:22;20.00;92.40
72940;DHT22;61094;51.154;13.570;2023-07-31T20:26:24;20.00;92.70
72940;DHT22;61094;51.154;13.570;2023-07-31T20:31:27;19.90;92.90
72940;DHT22;61094;51.154;13.570;2023-07-31T20:36:30;19.90;92.80
72940;DHT22;61094;51.154;13.570;2023-07-31T20:41:32;19.90;93.20
72940;DHT22;61094;51.154;13.570;2023-07-31T20:46:35;19.80;93.10
72940;DHT22;61094;51.154;13.570;2023-07-31T20:51:37;19.80;93.00
72940;DHT22;61094;51.154;13.570;2023-07-31T20:56:41;19.80;92.90
72940;DHT22;61094;51.154;13.570;2023-07-31T21:01:44;19.80;92.50
72940;DHT22;61094;51.154;13.570;2023-07-31T21:06:46;19.80;92.70
72940;DHT22;61094;51.154;13.570;2023-07-31T21:11:48;19.70;92.50
72940;DHT22;61094;51.154;13.570;2023-07-31T21:16:51;19.70;92.90
72940;DHT22;61094;51.154;13.570;2023-07-31T21:21:53;19.70;92.10
72940;DHT22;61094;51.154;13.570;2023-07-31T21:26:55;19.70;92.50
72940;DHT22;61094;51.154;13.570;2023-07-31T21:31:59;19.70;92.20
72940;DHT22;61094;51.154;13.570;2023-07-31T21:37:02;19.70;92.20
72940;DHT22;61094;51.154;13.570;2023-07-31T21:42:04;19.60;92.30
72940;DHT22;61094;51.154;13.570;2023-07-31T21:47:08;19.60;92.80
72940;DHT22;61094;51.154;13.570;2023-07-31T21:52:10;19.60;92.50
72940;DHT22;61094;51.154;13.570;2023-07-31T21:57:11;19.60;92.30
72940;DHT22;61094;51.154;13.570;2023-07-31T22:02:15;19.60;92.10
72940;DHT22;61094;51.154;13.570;2023-07-31T22:07:17;19.60;92.30
72940;DHT22;61094;51.154;13.570;2023-07-31T22:12:18;19.60;92.60
72940;DHT22;61094;51.154;13.570;2023-07-31T22:17:22;19.60;92.10
72940;DHT22;61094;51.154;13.570;2023-07-31T22:22:24;19.70;92.40
72940;DHT22;61094;51.154;13.570;2023-07-31T22:27:33;19.70;92.20
72940;DHT22;61094;51.154;13.570;2023-07-31T22:32:35;19.70;92.40
72940;DHT22;61094;51.154;13.570;2023-07-31T22:37:37;19.80;93.20
72940;DHT22;61094;51.154;13.570;2023-07-31T22:42:40;19.80;93.20
72940;DHT22;61094;51.154;13.570;2023-07-31T22:47:42;19.80;93.50
72940;DHT22;61094;51.154;13.570;2023-07-31T22:52:43;19.70;96.20
72940;DHT22;61094;51.154;13.570;2023-07-31T22:57:47;19.50;96.30
72940;DHT22;61094;51.154;13.570;2023-07-31T23:02:48;19.40;98.10
72940;DHT22;61094;51.154;13.570;2023-07-31T23:07:50;19.30;99.40
72940;DHT22;61094;51.154;13.570;2023-07-31T23:12:53;19.10;99.90
72940;DHT22;61094;51.154;13.570;2023-07-31T23:17:55;19.00;99.90
72940;DHT22;61094;51.154;13.570;2023-07-31T23:22:57;18.90;99.90
72940;DHT22;61094;51.154;13.570;2023-07-31T23:28:00;18.70;99.90
72940;DHT22;61094;51.154;13.570;2023-07-31T23:33:02;18.40;99.90
72940;DHT22;61094;51.154;13.570;2023-07-31T23:38:04;18.10;99.90
72940;DHT22;61094;51.154;13.570;2023-07-31T23:43:07;18.00;99.90
72940;DHT22;61094;51.154;13.570;2023-07-31T23:48:09;18.00;99.90
72940;DHT22;61094;51.154;13.570;2023-07-31T23:53:11;17.90;99.90
72940;DHT22;61094;51.154;13.570;2023-07-31T23:58:14;17.90;99.90
